Time;durP1;ratioP1;P1;durP2;ratioP2;P2;SDS_P1;SDS_P2;PMS_P1;PMS_P2;Temp;Humidity;BMP_temperature;BMP_pressure;BME280_temperature;BME280_humidity;BME280_pressure;Samples;Min_cycle;Max_cycle;Signal;HPM_P1;HPM_P2
2022/10/01 00:00:30;;;;;;;39.70;25.10;;;;;;;9.67;90.66;100246.44;3510884;82;26485;-89
2022/10/01 00:05:31;;;;;;;33.58;22.65;;;;;;;9.64;90.86;100253.23;3516092;82;99065;-88
2022/10/01 00:10:32;;;;;;;38.23;23.73;;;;;;;9.62;91.07;100258.33;3412627;85;33216;-88
2022/10/01 00:15:34;;;;;;;36.73;21.60;;;;;;;9.58;90.99;100253.36;3419930;84;98915;-89
2022/10/01 00:20:45;;;;;;;38.87;23.57;;;;;;;9.53;91.05;100256.44;3444148;84;34033;-89
2022/10/01 00:25:44;;;;;;;40.17;23.07;;;;;;;9.48;91.34;100252.07;3415289;84;98995;-89
2022/10/01 00:30:52;;;;;;;37.27;22.97;;;;;;;9.43;91.34;100251.02;3467173;83;33313;-88
2022/10/01 00:35:55;;;;;;;32.90;22.42;;;;;;;9.35;91.35;100246.63;3490367;82;98705;-88
2022/10/01 00:40:57;;;;;;;34.83;22.75;;;;;;;9.31;91.75;100247.14;3486135;82;26538;-89
2022/10/01 00:46:06;;;;;;;33.40;22.67;;;;;;;9.26;91.93;100243.95;3483549;82;99040;-89
2022/10/01 00:51:07;;;;;;;33.83;22.40;;;;;;;9.24;91.97;100242.95;3506786;82;26459;-89
2022/10/01 00:56:08;;;;;;;35.70;22.80;;;;;;;9.21;92.16;100245.05;3492064;82;98865;-89
2022/10/01 01:01:09;;;;;;;37.67;22.60;;;;;;;9.18;92.32;100247.75;3502689;82;33300;-89
2022/10/01 01:06:10;;;;;;;36.37;24.07;;;;;;;9.16;92.96;100246.74;3491052;82;98513;-89
2022/10/01 01:11:35;;;;;;;38.97;24.23;;;;;;;9.14;92.76;100246.90;3522031;82;33240;-89
2022/10/01 01:16:49;;;;;;;39.63;25.00;;;;;;;9.12;92.91;100246.49;3491327;82;98506;-88
2022/10/01 01:21:55;;;;;;;35.37;21.77;;;;;;;9.07;92.91;100239.95;3526906;82;25798;-87
2022/10/01 01:27:10;;;;;;;43.33;25.75;;;;;;;9.01;92.93;100238.13;3482943;82;98868;-89
2022/10/01 01:32:22;;;;;;;41.17;25.37;;;;;;;8.98;93.37;100238.84;3479933;82;26507;-89
2022/10/01 01:37:26;;;;;;;34.87;22.50;;;;;;;8.94;93.57;100238.59;3492177;82;98968;-89
2022/10/01 01:42:37;;;;;;;37.47;23.83;;;;;;;8.90;93.85;100227.54;3509735;82;25860;-89
2022/10/01 01:47:41;;;;;;;42.73;25.47;;;;;;;8.88;94.07;100227.73;3524138;82;98669;-90
2022/10/01 01:52:42;;;;;;;36.93;23.70;;;;;;;8.85;94.08;100225.14;3524979;82;27160;-88
2022/10/01 01:57:43;;;;;;;37.43;23.57;;;;;;;8.79;94.46;100220.34;3395179;85;98881;-89
2022/10/01 02:02:48;;;;;;;40.40;23.53;;;;;;;8.78;94.50;100218.77;3429058;84;33298;-89
2022/10/01 02:08:01;;;;;;;37.20;23.63;;;;;;;8.77;94.42;100219.33;3441939;83;99038;-88
2022/10/01 02:13:16;;;;;;;43.00;24.77;;;;;;;8.75;94.74;100202.45;3442319;84;26325;-88
2022/10/01 02:18:39;;;;;;;39.90;25.00;;;;;;;8.71;94.94;100203.55;3433884;84;98814;-89
2022/10/01 02:23:45;;;;;;;39.37;23.77;;;;;;;8.66;95.20;100203.86;3420958;84;98586;-88
2022/10/01 02:28:50;;;;;;;37.13;24.07;;;;;;;8.62;95.38;100195.58;3425070;84;26034;-88
2022/10/01 02:33:54;;;;;;;37.57;24.27;;;;;;;8.61;95.46;100189.11;3423280;84;98855;-90
2022/10/01 02:38:58;;;;;;;37.43;23.53;;;;;;;8.56;95.67;100185.31;3464811;84;25867;-87
2022/10/01 02:44:04;;;;;;;43.30;25.92;;;;;;;8.52;96.22;100181.72;3413062;85;98977;-89
2022/10/01 02:49:05;;;;;;;;;;;;;;;8.49;96.52;100173.64;3429753;85;25918;-89
2022/10/01 02:54:13;;;;;;;37.83;24.23;;;;;;;8.49;97.05;100175.02;3392823;85;84249;-89
2022/10/01 02:59:14;;;;;;;40.07;23.77;;;;;;;8.48;96.35;100167.95;3393882;85;26453;-90
2022/10/01 03:04:14;;;;;;;38.23;22.80;;;;;;;8.47;96.41;100164.20;3449816;84;98448;-89
2022/10/01 03:09:15;;;;;;;37.13;23.33;;;;;;;8.42;96.46;100149.43;3413671;85;33241;-89
2022/10/01 03:14:16;;;;;;;36.80;23.93;;;;;;;8.40;96.52;100155.28;3459761;84;98698;-89
2022/10/01 03:19:17;;;;;;;36.07;22.77;;;;;;;8.38;96.68;100152.69;3504447;82;33274;-89
2022/10/01 03:24:18;;;;;;;42.40;24.20;;;;;;;8.34;96.56;100153.24;3492712;82;98494;-90
2022/10/01 03:29:18;;;;;;;38.57;24.33;;;;;;;8.33;96.61;100152.44;3508439;82;33243;-89
2022/10/01 03:34:20;;;;;;;37.45;23.75;;;;;;;8.31;96.68;100144.37;3480577;82;98687;-90
2022/10/01 03:39:20;;;;;;;39.25;23.22;;;;;;;8.30;96.75;100140.82;3479086;83;33289;-89
2022/10/01 03:44:21;;;;;;;42.83;26.77;;;;;;;8.28;96.91;100140.41;3457153;83;98926;-89
2022/10/01 03:49:22;;;;;;;36.63;24.07;;;;;;;8.29;96.93;100137.10;3465929;83;31666;-88
2022/10/01 03:54:24;;;;;;;36.13;23.03;;;;;;;8.27;96.92;100144.88;3466211;83;98881;-88
2022/10/01 03:59:26;;;;;;;35.33;22.20;;;;;;;8.25;97.09;100132.14;3462091;83;31753;-89
2022/10/01 04:04:27;;;;;;;38.73;23.40;;;;;;;8.27;97.18;100129.23;3464739;83;98920;-89
2022/10/01 04:09:28;;;;;;;40.73;26.03;;;;;;;8.25;97.08;100125.28;3471709;83;31774;-90
2022/10/01 04:14:29;;;;;;;38.67;23.83;;;;;;;8.20;97.00;100124.22;3452890;82;98492;-89
2022/10/01 04:19:30;;;;;;;41.30;25.63;;;;;;;8.15;97.22;100129.98;3484972;83;31691;-88
2022/10/01 04:24:30;;;;;;;39.90;24.03;;;;;;;8.12;97.54;100129.37;3459954;83;98916;-88
2022/10/01 04:29:31;;;;;;;37.53;24.00;;;;;;;8.10;97.50;100120.13;3473943;83;31590;-89
2022/10/01 04:39:51;;;;;;;38.75;23.92;;;;;;;8.10;97.60;100128.36;3467048;83;33912;-89
2022/10/01 04:44:52;;;;;;;40.20;24.37;;;;;;;8.11;97.69;100130.50;3470217;83;98755;-88
2022/10/01 04:49:52;;;;;;;42.00;25.45;;;;;;;8.10;97.51;100152.22;3461277;83;31861;-89
2022/10/01 04:54:53;;;;;;;38.43;23.77;;;;;;;8.07;97.66;100143.38;3478787;83;98512;-89
2022/10/01 04:59:54;;;;;;;37.33;23.57;;;;;;;8.01;97.76;100142.88;3466376;83;32379;-89
2022/10/01 05:04:55;;;;;;;39.40;24.67;;;;;;;7.97;98.15;100145.36;3468300;83;98505;-89
2022/10/01 05:09:57;;;;;;;39.70;24.94;;;;;;;7.94;98.32;100140.03;3484425;83;31744;-89
2022/10/01 05:14:57;;;;;;;40.08;24.92;;;;;;;7.94;98.48;100143.34;3481166;83;98903;-89
2022/10/01 05:20:01;;;;;;;44.07;25.17;;;;;;;7.94;98.40;100137.85;3477440;83;25979;-88
2022/10/01 05:25:02;;;;;;;42.67;25.95;;;;;;;7.96;98.86;100141.04;3388401;85;98866;-89
2022/10/01 05:30:04;;;;;;;41.47;24.80;;;;;;;7.95;98.91;100135.32;3489543;83;27908;-89
2022/10/01 05:35:07;;;;;;;44.17;26.37;;;;;;;7.95;99.03;100126.53;3492378;82;98833;-90
2022/10/01 05:40:08;;;;;;;38.48;24.10;;;;;;;7.94;99.41;100121.41;3508306;82;30938;-90
2022/10/01 05:45:10;;;;;;;42.17;26.00;;;;;;;7.95;99.66;100120.25;3502903;82;98454;-87
2022/10/01 05:50:10;;;;;;;43.50;26.23;;;;;;;7.97;99.91;100115.22;3504811;82;25785;-89
2022/10/01 05:55:11;;;;;;;39.60;24.77;;;;;;;8.00;99.86;100108.41;3510367;82;98723;-90
2022/10/01 06:00:12;;;;;;;38.70;24.57;;;;;;;8.05;99.97;100110.85;3514163;82;34854;-89
2022/10/01 06:05:13;;;;;;;40.52;25.10;;;;;;;8.10;100.00;100104.25;3508705;82;98805;-89
2022/10/01 06:10:16;;;;;;;41.03;24.67;;;;;;;8.15;100.00;100106.12;3510184;82;34986;-89
2022/10/01 06:15:17;;;;;;;44.87;26.73;;;;;;;8.21;100.00;100103.87;3511551;82;98718;-89
2022/10/01 06:20:19;;;;;;;37.57;24.00;;;;;;;8.27;100.00;100109.25;3501057;82;34863;-89
2022/10/01 06:25:20;;;;;;;36.57;23.33;;;;;;;8.32;100.00;100100.70;3504442;82;98712;-90
2022/10/01 06:30:21;;;;;;;40.87;23.73;;;;;;;8.40;100.00;100111.41;3523491;82;25800;-89
2022/10/01 06:35:22;;;;;;;47.80;25.87;;;;;;;8.46;100.00;100101.70;3485096;82;99181;-89
2022/10/01 06:40:23;;;;;;;40.23;23.23;;;;;;;8.56;100.00;100098.31;3486732;83;34843;-90
2022/10/01 06:45:27;;;;;;;38.67;22.90;;;;;;;8.67;100.00;100088.88;3477583;82;98966;-90
2022/10/01 06:50:30;;;;;;;38.28;23.80;;;;;;;8.76;100.00;100083.31;3496524;83;31963;-90
2022/10/01 06:55:34;;;;;;;42.38;23.12;;;;;;;8.88;100.00;100067.97;3459304;83;98776;-88
2022/10/01 07:00:37;;;;;;;38.02;24.00;;;;;;;9.02;100.00;100065.40;3463104;83;32165;-90
2022/10/01 07:05:39;;;;;;;32.20;20.35;;;;;;;9.18;100.00;100063.23;3471237;83;99195;-89
2022/10/01 07:10:41;;;;;;;29.97;19.90;;;;;;;9.35;100.00;100055.75;3480724;83;25840;-89
2022/10/01 07:15:44;;;;;;;31.35;20.80;;;;;;;9.50;99.88;100042.36;3483160;83;98873;-89
2022/10/01 07:20:45;;;;;;;33.33;20.20;;;;;;;9.65;99.41;100039.92;3406008;85;30492;-93
2022/10/01 07:25:45;;;;;;;29.10;19.00;;;;;;;9.86;99.06;100032.45;3395906;85;98491;-90
2022/10/01 07:31:00;;;;;;;27.43;16.80;;;;;;;10.07;98.46;100040.86;3473415;83;34940;-89
2022/10/01 07:36:04;;;;;;;30.15;18.12;;;;;;;10.26;97.90;100029.00;3461103;83;98748;-90
2022/10/01 07:41:05;;;;;;;27.85;18.65;;;;;;;10.47;97.12;100022.23;3478282;83;26996;-90
2022/10/01 07:46:06;;;;;;;29.03;19.70;;;;;;;10.70;96.94;100026.89;3485646;82;98996;-90
2022/10/01 07:51:06;;;;;;;28.73;18.30;;;;;;;10.88;96.34;100016.72;3474860;83;34874;-88
2022/10/01 07:56:07;;;;;;;30.87;18.83;;;;;;;11.11;95.97;100026.81;3478867;83;98922;-91
2022/10/01 08:01:08;;;;;;;29.83;18.83;;;;;;;11.29;94.98;100013.84;3473485;83;34846;-91
2022/10/01 08:06:11;;;;;;;27.97;18.57;;;;;;;11.54;93.83;100013.87;3483055;83;98887;-89
2022/10/01 08:11:14;;;;;;;34.37;17.90;;;;;;;11.78;93.62;100002.87;3485320;83;33016;-89
2022/10/01 08:16:14;;;;;;;26.77;17.53;;;;;;;12.06;93.39;99991.84;3477971;83;98961;-92
2022/10/01 08:21:15;;;;;;;25.13;16.50;;;;;;;12.36;93.14;99989.96;3471735;83;25914;-89
2022/10/01 08:26:16;;;;;;;21.53;14.30;;;;;;;12.63;91.89;99979.42;3470615;83;98841;-88
2022/10/01 08:31:16;;;;;;;22.13;14.43;;;;;;;12.86;89.91;99963.73;3477198;83;35547;-86
2022/10/01 08:36:18;;;;;;;21.67;13.10;;;;;;;13.04;88.83;99955.54;3461811;83;98909;-88
2022/10/01 08:41:42;;;;;;;18.83;12.50;;;;;;;13.21;88.37;99948.34;3488723;83;35634;-89
2022/10/01 08:46:44;;;;;;;19.75;12.20;;;;;;;13.39;87.54;99945.63;3491482;82;98814;-86
2022/10/01 08:52:05;;;;;;;21.65;13.45;;;;;;;13.61;86.50;99953.13;3475460;83;31711;-88
2022/10/01 08:57:14;;;;;;;22.95;14.80;;;;;;;13.83;85.60;99952.54;3477596;83;98625;-88
2022/10/01 09:02:28;;;;;;;17.00;11.38;;;;;;;14.62;85.42;99936.05;3489898;83;29906;-90
2022/10/01 09:07:51;;;;;;;18.03;11.13;;;;;;;14.62;85.42;99936.05;3450371;83;98443;-90
2022/10/01 09:13:30;;;;;;;16.10;11.00;;;;;;;15.12;83.31;99932.17;3486645;83;32194;-96
2022/10/01 09:18:45;;;;;;;18.98;10.95;;;;;;;15.63;81.78;99912.33;3493243;83;32292;-85
2022/10/01 09:24:03;;;;;;;15.70;9.70;;;;;;;16.27;79.28;99905.77;3474520;83;99007;-91
2022/10/01 09:29:10;;;;;;;17.70;9.23;;;;;;;16.51;77.38;99896.15;3468252;83;31716;-85
2022/10/01 09:34:28;;;;;;;16.57;9.18;;;;;;;16.92;76.03;99879.75;3485591;82;98589;-89
2022/10/01 09:39:43;;;;;;;13.30;8.55;;;;;;;17.01;73.54;99877.77;3520452;82;31662;-86
2022/10/01 09:44:46;;;;;;;12.82;8.30;;;;;;;17.04;73.80;99872.70;3525548;82;98549;-87
2022/10/01 09:49:49;;;;;;;13.98;8.78;;;;;;;17.04;73.04;99872.11;3546327;82;31427;-90
2022/10/01 09:55:03;;;;;;;16.73;8.28;;;;;;;17.01;70.77;99878.53;3518476;82;98521;-89
2022/10/01 10:00:17;;;;;;;14.30;8.95;;;;;;;16.95;70.11;99873.94;3524759;82;31691;-93
2022/10/01 10:05:25;;;;;;;15.50;9.08;;;;;;;16.91;71.01;99876.80;3508518;82;98566;-94
2022/10/01 10:10:38;;;;;;;13.15;8.33;;;;;;;16.84;70.97;99870.00;3525018;82;31703;-89
2022/10/01 10:15:52;;;;;;;13.30;8.37;;;;;;;16.86;71.10;99848.73;3420777;84;98661;-91
2022/10/01 10:20:55;;;;;;;13.38;7.72;;;;;;;16.84;70.12;99844.22;3473321;83;32307;-87
2022/10/01 10:26:01;;;;;;;14.63;8.00;;;;;;;16.80;70.30;99840.73;3476249;83;98867;-90
2022/10/01 10:31:02;;;;;;;;;;;;;;;16.80;68.97;99827.63;3440112;84;26522;-93
2022/10/01 10:36:05;;;;;;;10.55;6.92;;;;;;;16.84;68.88;99821.36;3454428;83;84728;-90
2022/10/01 10:41:13;;;;;;;12.18;7.10;;;;;;;16.84;70.10;99810.25;3440351;84;31736;-89
2022/10/01 10:46:31;;;;;;;11.23;6.93;;;;;;;16.95;69.08;99807.98;3422889;84;98669;-91
2022/10/01 10:51:55;;;;;;;14.23;7.30;;;;;;;16.85;69.51;99802.08;3450083;84;32207;-90
2022/10/01 10:57:01;;;;;;;11.55;7.37;;;;;;;16.82;69.48;99791.84;3435341;84;98525;-89
2022/10/01 11:02:05;;;;;;;11.28;6.58;;;;;;;16.87;69.50;99791.33;3461267;84;25871;-90
2022/10/01 11:07:06;;;;;;;12.05;7.67;;;;;;;16.85;69.37;99779.08;3417347;84;98537;-93
2022/10/01 11:12:28;;;;;;;13.07;8.30;;;;;;;16.88;69.32;99772.63;3446011;84;26540;-94
2022/10/01 11:17:54;;;;;;;11.68;8.00;;;;;;;16.93;69.44;99768.73;3410209;84;98523;-89
2022/10/01 11:23:06;;;;;;;13.22;7.67;;;;;;;17.00;69.77;99763.61;3440962;84;25785;-88
2022/10/01 11:28:45;;;;;;;13.15;8.55;;;;;;;17.03;69.58;99749.63;3435029;84;98635;-88
2022/10/01 11:34:10;;;;;;;13.27;8.03;;;;;;;16.98;69.44;99740.41;3426188;84;98535;-90
2022/10/01 11:39:17;;;;;;;14.45;8.23;;;;;;;17.09;69.33;99738.73;3411665;85;32194;-88
2022/10/01 11:44:29;;;;;;;12.20;7.13;;;;;;;17.02;69.06;99730.00;3414892;85;98830;-88
2022/10/01 11:50:06;;;;;;;10.60;6.97;;;;;;;17.07;68.99;99723.88;3398435;85;31773;-88
2022/10/01 12:01:03;;;;;;;9.53;5.55;;;;;;;16.96;68.78;99705.93;3404381;85;31726;-91
2022/10/01 12:06:08;;;;;;;10.88;4.72;;;;;;;17.00;68.11;99698.28;3461749;83;98583;-88
2022/10/01 12:11:27;;;;;;;9.15;4.47;;;;;;;17.00;67.19;99690.71;3398781;85;30091;-89
2022/10/01 12:16:54;;;;;;;9.38;4.87;;;;;;;17.04;67.67;99690.61;3468283;83;98374;-89
2022/10/01 12:22:09;;;;;;;10.48;5.20;;;;;;;17.15;66.64;99682.77;3425433;85;31727;-91
2022/10/01 12:27:40;;;;;;;9.05;5.20;;;;;;;17.25;67.14;99674.74;3405531;85;98678;-89
2022/10/01 12:33:14;;;;;;;9.53;4.75;;;;;;;17.29;66.70;99665.70;3402182;85;32279;-88
2022/10/01 12:38:38;;;;;;;9.38;5.17;;;;;;;17.31;66.38;99660.47;3387898;84;98709;-90
2022/10/01 12:44:08;;;;;;;8.83;4.58;;;;;;;17.28;66.06;99655.80;3437173;84;98802;-90
2022/10/01 12:49:39;;;;;;;7.67;4.65;;;;;;;17.18;65.20;99652.70;3430199;84;32253;-87
2022/10/01 12:55:28;;;;;;;10.30;4.78;;;;;;;17.12;65.50;99642.72;3426933;84;98469;-87
2022/10/01 13:00:51;;;;;;;11.55;5.05;;;;;;;17.08;65.71;99640.66;3439685;84;32161;-86
2022/10/01 13:06:32;;;;;;;9.30;5.00;;;;;;;17.05;66.37;99627.63;3430632;84;98603;-88
2022/10/01 13:11:57;;;;;;;9.03;4.85;;;;;;;17.03;66.67;99606.45;3412426;84;30720;-91
2022/10/01 13:17:28;;;;;;;9.88;4.70;;;;;;;17.01;65.95;99611.66;3427634;84;98311;-88
2022/10/01 13:22:47;;;;;;;8.38;4.45;;;;;;;17.05;66.27;99603.23;3429908;83;31704;-94
2022/10/01 13:28:11;;;;;;;10.08;4.83;;;;;;;17.01;65.91;99599.77;3491365;83;98260;-88
2022/10/01 13:33:23;;;;;;;9.65;4.70;;;;;;;16.98;66.55;99590.91;3479504;83;31728;-89
2022/10/01 13:38:38;;;;;;;10.88;5.30;;;;;;;16.99;66.29;99576.58;3456918;83;98215;-87
2022/10/01 13:43:57;;;;;;;10.90;5.05;;;;;;;16.96;66.34;99573.27;3411745;85;98661;-87
2022/10/01 13:49:06;;;;;;;8.93;4.85;;;;;;;16.92;66.56;99569.05;3459333;84;31664;-88
2022/10/01 13:54:12;;;;;;;7.47;3.92;;;;;;;16.86;66.56;99563.86;3404780;84;98799;-88
2022/10/01 13:59:35;;;;;;;9.40;4.62;;;;;;;16.74;66.43;99554.88;3451674;84;30130;-90
2022/10/01 14:04:43;;;;;;;10.13;5.35;;;;;;;16.69;66.57;99543.69;3505187;82;98580;-90
2022/10/01 14:09:51;;;;;;;11.78;6.12;;;;;;;16.56;68.56;99565.06;3515353;82;31918;-91
2022/10/01 14:20:23;;;;;;;9.03;4.50;;;;;;;15.62;72.87;99562.66;3505840;82;25825;-86
2022/10/01 14:25:50;;;;;;;9.67;4.90;;;;;;;15.25;73.95;99567.22;3496424;82;98335;-85
2022/10/01 14:31:31;;;;;;;9.15;4.00;;;;;;;14.99;74.55;99566.77;3495957;82;31279;-86
2022/10/01 14:36:36;;;;;;;6.80;4.00;;;;;;;14.75;75.06;99565.88;3505131;82;98701;-85
2022/10/01 14:41:36;;;;;;;10.60;3.97;;;;;;;14.46;74.94;99579.50;3528342;82;29079;-84
2022/10/01 14:46:37;;;;;;;5.40;3.30;;;;;;;14.16;74.25;99585.72;3525648;82;98720;-87
2022/10/01 14:51:43;;;;;;;11.70;3.53;;;;;;;13.85;74.44;99587.80;3513550;82;26884;-86
2022/10/01 14:56:45;;;;;;;8.00;3.65;;;;;;;13.59;75.80;99590.58;3522861;82;98834;-86
2022/10/01 15:01:59;;;;;;;7.70;3.70;;;;;;;13.34;77.21;99579.08;3540173;82;27354;-88
2022/10/01 15:07:07;;;;;;;11.60;7.28;;;;;;;13.06;80.33;99574.72;3519903;82;98158;-87
2022/10/01 15:12:09;;;;;;;12.15;4.95;;;;;;;13.06;80.33;99574.72;3518270;82;32260;-85
2022/10/01 15:17:24;;;;;;;12.93;6.58;;;;;;;12.96;81.35;99578.39;3523966;82;98378;-84
2022/10/01 15:22:28;;;;;;;10.80;6.12;;;;;;;12.90;81.72;99574.49;3528746;82;31673;-84
2022/10/01 15:27:29;;;;;;;9.27;4.47;;;;;;;12.79;83.63;99568.31;3524481;82;98514;-85
2022/10/01 15:32:30;;;;;;;10.07;4.97;;;;;;;12.79;83.63;99568.31;3422517;85;25833;-85
2022/10/01 15:37:35;;;;;;;10.30;6.03;;;;;;;12.71;83.24;99570.19;3420656;84;98355;-85
2022/10/01 15:42:36;;;;;;;11.95;6.80;;;;;;;12.62;84.00;99563.78;3499228;83;31753;-84
2022/10/01 15:47:50;;;;;;;19.80;9.10;;;;;;;12.55;85.20;99559.72;3437102;84;98385;-86
2022/10/01 15:53:16;;;;;;;13.53;7.17;;;;;;;12.51;86.27;99565.07;3435069;84;31033;-87
2022/10/01 15:58:34;;;;;;;12.83;7.23;;;;;;;12.43;87.53;99561.60;3436528;84;98400;-90
2022/10/01 16:04:01;;;;;;;14.07;7.40;;;;;;;12.35;89.24;99549.67;3427971;84;98630;-86
2022/10/01 16:09:19;;;;;;;14.78;7.45;;;;;;;12.29;89.38;99547.97;3468771;83;29981;-87
2022/10/01 16:14:35;;;;;;;13.18;7.60;;;;;;;12.23;90.62;99540.53;3492759;83;99108;-89
2022/10/01 16:19:36;;;;;;;14.87;9.20;;;;;;;12.21;90.25;99534.65;3487397;83;26609;-90
2022/10/01 16:24:59;;;;;;;15.87;8.50;;;;;;;12.14;91.82;99539.62;3498450;83;98849;-86
2022/10/01 16:30:21;;;;;;;16.60;8.75;;;;;;;12.11;91.48;99538.29;3503229;83;31750;-86
2022/10/01 16:35:34;;;;;;;14.78;7.78;;;;;;;12.09;91.85;99532.38;3491206;83;98775;-88
2022/10/01 16:40:42;;;;;;;18.60;8.23;;;;;;;12.06;92.39;99541.48;3447133;84;30236;-84
2022/10/01 16:45:43;;;;;;;14.95;7.25;;;;;;;12.05;92.67;99537.16;3503093;82;98650;-91
2022/10/01 16:50:45;;;;;;;11.60;6.97;;;;;;;12.05;92.77;99534.41;3500019;82;25981;-86
2022/10/01 16:55:46;;;;;;;13.80;7.63;;;;;;;12.04;93.08;99534.23;3508712;82;98543;-86
2022/10/01 17:00:47;;;;;;;15.40;7.70;;;;;;;12.02;93.54;99531.87;3529495;82;25980;-85
2022/10/01 17:05:48;;;;;;;13.67;7.43;;;;;;;12.01;93.42;99524.80;3508108;82;98586;-84
2022/10/01 17:10:58;;;;;;;13.47;8.00;;;;;;;12.01;93.46;99528.93;3510084;82;25875;-86
2022/10/01 17:16:00;;;;;;;14.03;7.17;;;;;;;12.00;93.93;99531.47;3494896;82;98880;-87
2022/10/01 17:21:03;;;;;;;12.93;7.70;;;;;;;11.98;94.28;99532.48;3498097;82;29219;-84
2022/10/01 17:26:07;;;;;;;13.15;7.62;;;;;;;11.96;94.21;99536.84;3506595;82;98533;-85
2022/10/01 17:31:08;;;;;;;11.20;6.00;;;;;;;11.97;94.22;99538.41;3502590;82;31624;-87
2022/10/01 17:36:09;;;;;;;10.67;6.20;;;;;;;11.95;95.19;99542.94;3512519;82;98942;-86
2022/10/01 17:41:10;;;;;;;18.23;8.13;;;;;;;11.88;95.98;99531.22;3541011;82;25880;-87
2022/10/01 17:46:11;;;;;;;12.03;7.13;;;;;;;11.84;96.25;99538.73;3524342;82;98516;-86
2022/10/01 17:51:16;;;;;;;12.07;7.93;;;;;;;11.78;96.25;99545.25;3514237;82;29179;-90
2022/10/01 17:56:17;;;;;;;14.50;8.13;;;;;;;11.74;97.74;99543.14;3415454;85;98790;-86
2022/10/01 18:01:21;;;;;;;14.33;8.30;;;;;;;11.72;97.29;99554.38;3529332;82;31659;-87
2022/10/01 18:06:24;;;;;;;12.87;7.60;;;;;;;11.67;97.92;99554.81;3514198;82;98512;-86
2022/10/01 18:11:27;;;;;;;12.80;7.65;;;;;;;11.63;97.94;99557.59;3525166;82;30509;-86
2022/10/01 18:16:28;;;;;;;14.90;7.75;;;;;;;11.60;98.33;99562.52;3514608;82;98474;-88
2022/10/01 18:21:28;;;;;;;13.80;8.07;;;;;;;11.60;98.36;99557.59;3524574;82;26381;-86
2022/10/01 18:26:29;;;;;;;13.73;8.27;;;;;;;11.60;98.76;99557.59;3520896;82;98509;-86
2022/10/01 18:31:38;;;;;;;11.00;7.17;;;;;;;11.59;98.98;99560.97;3528597;82;34925;-85
2022/10/01 18:36:53;;;;;;;15.60;7.35;;;;;;;11.59;99.10;99560.16;3519318;82;98477;-89
2022/10/01 18:41:55;;;;;;;14.10;8.25;;;;;;;11.59;98.94;99558.79;3514197;82;30205;-84
2022/10/01 18:47:05;;;;;;;14.07;8.73;;;;;;;11.58;99.51;99557.99;3522948;82;98391;-85
2022/10/01 18:52:33;;;;;;;14.47;7.90;;;;;;;11.60;99.20;99561.73;3521921;82;27038;-86
2022/10/01 18:58:30;;;;;;;13.80;8.03;;;;;;;11.61;99.64;99556.44;3504895;82;98713;-86
2022/10/01 19:03:52;;;;;;;14.87;8.57;;;;;;;11.60;99.68;99552.88;3437554;82;26722;-87
2022/10/01 19:09:13;;;;;;;15.40;9.08;;;;;;;11.59;99.71;99556.03;3480739;82;29812;-85
2022/10/01 19:14:54;;;;;;;14.83;9.10;;;;;;;11.61;99.83;99558.58;3517735;82;98617;-86
2022/10/01 19:20:16;;;;;;;13.17;8.47;;;;;;;11.62;99.85;99561.52;3515148;82;27488;-86
2022/10/01 19:25:40;;;;;;;12.83;8.37;;;;;;;11.66;99.90;99557.38;3532331;81;98984;-86
2022/10/01 19:30:52;;;;;;;14.07;8.10;;;;;;;11.65;100.00;99571.74;3503987;82;31716;-87
2022/10/01 19:35:59;;;;;;;13.48;8.40;;;;;;;11.68;99.62;99575.09;3485045;82;98686;-86
2022/10/01 19:41:09;;;;;;;;;;;;;;;11.71;100.00;99571.50;3485627;82;25979;-86
2022/10/01 19:46:25;;;;;;;14.03;7.15;;;;;;;11.72;100.00;99578.58;3476066;83;85086;-87
2022/10/01 19:51:39;;;;;;;12.70;7.20;;;;;;;11.72;99.81;99574.44;3487221;83;25955;-85
2022/10/01 19:56:42;;;;;;;12.70;7.25;;;;;;;11.74;100.00;99589.20;3479631;83;98489;-86
2022/10/01 20:01:56;;;;;;;15.08;8.13;;;;;;;11.75;99.83;99588.02;3489548;83;31032;-85
2022/10/01 20:07:03;;;;;;;12.37;7.57;;;;;;;11.73;100.00;99582.89;3480815;83;98675;-86
2022/10/01 20:12:10;;;;;;;;;;;;;;;11.75;99.96;99586.63;3484627;83;25920;-86
2022/10/01 20:17:23;;;;;;;;;;;;;;;11.76;100.00;99590.95;3470547;83;84718;-86
2022/10/01 20:22:51;;;;;;;13.48;6.92;;;;;;;11.77;100.00;99592.55;3474854;83;32205;-87
2022/10/01 20:28:07;;;;;;;11.93;5.72;;;;;;;11.77;99.57;99591.94;3476563;83;98689;-85
2022/10/01 20:33:28;;;;;;;12.40;6.37;;;;;;;11.79;99.74;99605.31;3475161;83;32201;-86
2022/10/01 20:38:47;;;;;;;10.38;5.90;;;;;;;11.77;99.86;99611.23;3485600;82;98372;-87
2022/10/01 20:43:55;;;;;;;11.07;6.00;;;;;;;11.77;99.86;99611.23;3509043;82;98496;-86
2022/10/01 20:49:20;;;;;;;12.35;5.83;;;;;;;11.78;99.80;99610.65;3519820;82;32250;-86
2022/10/01 20:54:26;;;;;;;11.50;6.75;;;;;;;11.77;99.78;99613.98;3499576;82;98579;-86
2022/10/01 20:59:35;;;;;;;10.53;5.60;;;;;;;11.78;99.94;99614.78;3513492;82;26364;-87
2022/10/01 21:04:41;;;;;;;10.25;5.80;;;;;;;11.79;99.86;99622.66;3512901;82;98656;-85
2022/10/01 21:09:46;;;;;;;11.68;6.78;;;;;;;11.80;99.93;99623.42;3525600;82;26029;-87
2022/10/01 21:14:53;;;;;;;11.23;5.93;;;;;;;11.82;99.84;99626.58;3511482;82;98816;-86
2022/10/01 21:20:14;;;;;;;10.63;5.87;;;;;;;11.82;99.81;99632.09;3497606;82;31713;-88
2022/10/01 21:25:52;;;;;;;10.58;5.80;;;;;;;11.82;99.88;99637.60;3498478;82;98524;-86
2022/10/01 21:31:28;;;;;;;12.50;6.17;;;;;;;11.82;99.62;99632.86;3520356;82;32069;-87
2022/10/01 21:36:39;;;;;;;11.30;5.75;;;;;;;11.83;99.74;99637.17;3495970;82;98603;-87
2022/10/01 21:41:55;;;;;;;10.58;6.05;;;;;;;11.84;99.74;99644.25;3481249;83;31604;-87
2022/10/01 21:47:31;;;;;;;10.23;5.35;;;;;;;11.85;99.84;99641.71;3473929;82;98334;-85
2022/10/01 21:53:05;;;;;;;11.25;6.30;;;;;;;11.83;100.00;99654.33;3491185;83;25832;-86
2022/10/01 21:58:21;;;;;;;10.48;5.22;;;;;;;11.83;99.98;99651.57;3452082;83;98578;-86
2022/10/01 22:03:33;;;;;;;9.20;4.30;;;;;;;11.82;100.00;99654.91;3478528;82;30851;-84
2022/10/01 22:09:01;;;;;;;7.97;4.20;;;;;;;11.82;100.00;99652.77;3485595;83;32182;-85
2022/10/01 22:14:09;;;;;;;8.60;4.28;;;;;;;11.84;100.00;99661.41;3465447;83;98701;-86
2022/10/01 22:19:16;;;;;;;8.05;3.50;;;;;;;11.86;100.00;99672.80;3463337;83;32274;-85
2022/10/01 22:24:20;;;;;;;;;;;;;;;11.87;100.00;99666.89;3477482;83;98738;-85
2022/10/01 22:29:26;;;;;;;7.78;4.10;;;;;;;11.89;100.00;99680.28;3451074;83;32234;-83
2022/10/01 22:34:34;;;;;;;6.85;3.70;;;;;;;11.89;100.00;99684.42;3472390;83;98651;-85
2022/10/01 22:39:47;;;;;;;7.25;3.75;;;;;;;11.90;100.00;99691.50;3492843;82;31767;-87
2022/10/01 22:44:48;;;;;;;7.78;3.98;;;;;;;11.78;100.00;99674.05;3518717;82;99077;-87
2022/10/01 22:50:21;;;;;;;7.70;4.03;;;;;;;11.88;100.00;99702.92;3529678;82;25868;-87
2022/10/01 22:55:33;;;;;;;7.75;3.87;;;;;;;11.87;100.00;99708.25;3480812;82;99091;-87
2022/10/01 23:00:40;;;;;;;8.23;4.00;;;;;;;11.78;100.00;99694.72;3511423;82;32309;-87
2022/10/01 23:06:04;;;;;;;12.88;5.45;;;;;;;11.84;100.00;99715.94;3514828;82;98572;-87
2022/10/01 23:11:42;;;;;;;7.28;3.70;;;;;;;11.82;100.00;99718.94;3515956;82;32250;-87
2022/10/01 23:17:09;;;;;;;6.95;4.08;;;;;;;11.78;100.00;99721.68;3500025;82;98523;-86
2022/10/01 23:22:52;;;;;;;7.75;4.03;;;;;;;11.78;100.00;99721.68;3506277;82;31696;-87
2022/10/01 23:28:24;;;;;;;8.95;4.50;;;;;;;11.78;100.00;99739.59;3484927;82;98438;-86
2022/10/01 23:33:33;;;;;;;8.68;4.20;;;;;;;11.78;100.00;99737.45;3526415;82;31598;-86
2022/10/01 23:38:42;;;;;;;7.83;3.85;;;;;;;11.76;100.00;99748.08;3525683;82;32178;-87
2022/10/01 23:43:47;;;;;;;11.27;4.70;;;;;;;11.76;100.00;99750.83;3492438;82;98953;-87
2022/10/01 23:49:13;;;;;;;7.83;4.00;;;;;;;11.74;100.00;99749.87;3520135;82;31647;-86
2022/10/01 23:54:25;;;;;;;9.90;3.93;;;;;;;11.74;100.00;99753.22;3527211;82;98837;-86
